sensor_id;sensor_type;location;lat;lon;timestamp;pressure;altitude;pressure_sealevel;temperature;humidity
58739;BME280;44512;53.046;18.604;2023-07-30T00:06:16;100816.78;;;20.86;66.00
58739;BME280;44512;53.046;18.604;2023-07-30T00:16:44;100814.54;;;20.83;66.19
58739;BME280;44512;53.046;18.604;2023-07-30T00:27:12;100817.27;;;20.77;66.47
58739;BME280;44512;53.046;18.604;2023-07-30T00:37:41;100805.16;;;20.73;66.67
58739;BME280;44512;53.046;18.604;2023-07-30T00:48:13;100826.85;;;20.70;66.92
58739;BME280;44512;53.046;18.604;2023-07-30T00:58:37;100831.22;;;20.66;67.02
58739;BME280;44512;53.046;18.604;2023-07-30T01:09:06;100821.59;;;20.63;67.20
58739;BME280;44512;53.046;18.604;2023-07-30T01:19:34;100851.81;;;20.58;67.25
58739;BME280;44512;53.046;18.604;2023-07-30T01:30:10;100849.57;;;20.55;67.14
58739;BME280;44512;53.046;18.604;2023-07-30T01:40:34;100854.20;;;20.49;67.08
58739;BME280;44512;53.046;18.604;2023-07-30T01:50:59;100867.40;;;20.47;67.10
58739;BME280;44512;53.046;18.604;2023-07-30T02:01:27;100867.05;;;20.44;67.09
58739;BME280;44512;53.046;18.604;2023-07-30T02:11:56;100865.92;;;20.40;67.13
58739;BME280;44512;53.046;18.604;2023-07-30T02:22:24;100869.45;;;20.35;67.20
58739;BME280;44512;53.046;18.604;2023-07-30T02:32:53;100878.78;;;20.34;67.25
58739;BME280;44512;53.046;18.604;2023-07-30T02:43:21;100883.73;;;20.32;67.27
58739;BME280;44512;53.046;18.604;2023-07-30T02:53:52;100883.97;;;20.30;67.41
58739;BME280;44512;53.046;18.604;2023-07-30T03:04:18;100889.70;;;20.24;67.45
58739;BME280;44512;53.046;18.604;2023-07-30T03:14:46;100885.80;;;20.20;67.37
58739;BME280;44512;53.046;18.604;2023-07-30T03:25:14;100880.56;;;20.18;67.36
58739;BME280;44512;53.046;18.604;2023-07-30T03:35:43;100877.27;;;20.16;67.27
58739;BME280;44512;53.046;18.604;2023-07-30T03:46:11;100893.76;;;20.16;67.33
58739;BME280;44512;53.046;18.604;2023-07-30T03:56:39;100905.26;;;20.13;67.41
58739;BME280;44512;53.046;18.604;2023-07-30T04:07:08;100884.87;;;20.09;67.11
58739;BME280;44512;53.046;18.604;2023-07-30T04:17:37;100912.95;;;20.11;67.62
58739;BME280;44512;53.046;18.604;2023-07-30T04:28:04;100921.41;;;20.10;67.82
58739;BME280;44512;53.046;18.604;2023-07-30T04:38:33;100923.93;;;20.11;67.91
58739;BME280;44512;53.046;18.604;2023-07-30T04:49:04;100940.41;;;20.11;68.18
58739;BME280;44512;53.046;18.604;2023-07-30T04:59:29;100944.55;;;20.14;68.41
58739;BME280;44512;53.046;18.604;2023-07-30T05:09:58;100947.86;;;20.16;68.67
58739;BME280;44512;53.046;18.604;2023-07-30T05:20:26;100953.13;;;20.17;68.91
58739;BME280;44512;53.046;18.604;2023-07-30T05:30:54;100961.37;;;20.17;69.23
58739;BME280;44512;53.046;18.604;2023-07-30T05:41:23;100957.52;;;20.18;69.61
58739;BME280;44512;53.046;18.604;2023-07-30T05:51:51;100969.08;;;20.20;69.94
58739;BME280;44512;53.046;18.604;2023-07-30T06:02:19;100965.27;;;20.21;70.27
58739;BME280;44512;53.046;18.604;2023-07-30T06:12:48;100975.16;;;20.22;70.70
58739;BME280;44512;53.046;18.604;2023-07-30T06:23:16;100978.73;;;20.23;71.15
58739;BME280;44512;53.046;18.604;2023-07-30T06:33:45;100974.62;;;20.25;71.49
58739;BME280;44512;53.046;18.604;2023-07-30T06:44:13;100982.92;;;20.30;71.75
58739;BME280;44512;53.046;18.604;2023-07-30T06:54:41;100981.91;;;20.37;71.98
58739;BME280;44512;53.046;18.604;2023-07-30T07:05:10;100974.79;;;20.41;72.06
58739;BME280;44512;53.046;18.604;2023-07-30T07:15:38;100987.55;;;20.47;72.08
58739;BME280;44512;53.046;18.604;2023-07-30T07:26:06;100992.84;;;20.53;71.72
58739;BME280;44512;53.046;18.604;2023-07-30T07:36:36;100993.44;;;20.61;71.17
58739;BME280;44512;53.046;18.604;2023-07-30T07:47:03;100991.56;;;20.66;70.32
58739;BME280;44512;53.046;18.604;2023-07-30T07:57:31;100988.86;;;20.71;68.99
58739;BME280;44512;53.046;18.604;2023-07-30T08:08:00;101001.05;;;20.80;68.33
58739;BME280;44512;53.046;18.604;2023-07-30T08:18:28;101001.41;;;20.89;68.00
58739;BME280;44512;53.046;18.604;2023-07-30T08:28:56;100998.74;;;20.99;68.08
58739;BME280;44512;53.046;18.604;2023-07-30T08:39:25;101005.40;;;21.08;67.40
58739;BME280;44512;53.046;18.604;2023-07-30T08:49:53;101018.41;;;21.18;66.66
58739;BME280;44512;53.046;18.604;2023-07-30T09:00:25;101012.15;;;21.28;66.31
58739;BME280;44512;53.046;18.604;2023-07-30T09:10:50;101014.18;;;21.38;65.65
58739;BME280;44512;53.046;18.604;2023-07-30T09:21:18;101021.41;;;21.49;64.96
58739;BME280;44512;53.046;18.604;2023-07-30T09:31:49;101024.23;;;21.59;63.99
58739;BME280;44512;53.046;18.604;2023-07-30T09:42:15;101028.70;;;21.70;62.95
58739;BME280;44512;53.046;18.604;2023-07-30T09:52:44;101030.95;;;21.78;62.70
58739;BME280;44512;53.046;18.604;2023-07-30T10:03:15;101036.51;;;21.89;62.36
58739;BME280;44512;53.046;18.604;2023-07-30T10:13:40;101029.95;;;22.00;61.42
58739;BME280;44512;53.046;18.604;2023-07-30T10:24:08;101036.35;;;22.10;61.34
58739;BME280;44512;53.046;18.604;2023-07-30T10:34:43;101033.95;;;22.24;61.41
58739;BME280;44512;53.046;18.604;2023-07-30T10:45:07;101037.84;;;22.33;60.94
58739;BME280;44512;53.046;18.604;2023-07-30T10:55:34;101008.61;;;22.43;60.37
58739;BME280;44512;53.046;18.604;2023-07-30T11:06:02;101012.48;;;22.52;60.12
58739;BME280;44512;53.046;18.604;2023-07-30T11:16:30;101013.61;;;22.61;59.53
58739;BME280;44512;53.046;18.604;2023-07-30T11:26:59;101014.74;;;22.70;58.69
58739;BME280;44512;53.046;18.604;2023-07-30T11:37:27;101025.78;;;22.80;56.93
58739;BME280;44512;53.046;18.604;2023-07-30T11:58:28;101009.52;;;22.99;54.68
58739;BME280;44512;53.046;18.604;2023-07-30T12:08:52;100993.23;;;23.08;54.12
58739;BME280;44512;53.046;18.604;2023-07-30T12:19:20;100976.13;;;23.11;52.56
58739;BME280;44512;53.046;18.604;2023-07-30T12:29:48;100983.81;;;23.29;50.88
58739;BME280;44512;53.046;18.604;2023-07-30T12:40:16;100982.96;;;23.44;50.47
58739;BME280;44512;53.046;18.604;2023-07-30T12:50:45;100969.40;;;23.58;49.74
58739;BME280;44512;53.046;18.604;2023-07-30T13:01:13;100961.09;;;23.73;48.31
58739;BME280;44512;53.046;18.604;2023-07-30T13:11:41;100947.73;;;23.90;48.22
58739;BME280;44512;53.046;18.604;2023-07-30T13:22:10;100952.62;;;24.09;48.33
58739;BME280;44512;53.046;18.604;2023-07-30T13:32:38;100927.34;;;24.26;48.13
58739;BME280;44512;53.046;18.604;2023-07-30T13:43:06;100931.38;;;24.43;47.88
58739;BME280;44512;53.046;18.604;2023-07-30T13:53:34;100931.23;;;24.64;46.88
58739;BME280;44512;53.046;18.604;2023-07-30T14:04:03;100915.52;;;24.88;46.47
58739;BME280;44512;53.046;18.604;2023-07-30T14:14:31;100925.00;;;25.11;45.31
58739;BME280;44512;53.046;18.604;2023-07-30T14:24:59;100911.74;;;25.32;45.47
58739;BME280;44512;53.046;18.604;2023-07-30T14:35:28;100913.12;;;25.59;44.66
58739;BME280;44512;53.046;18.604;2023-07-30T14:51:10;100901.95;;;26.07;43.63
58739;BME280;44512;53.046;18.604;2023-07-30T15:01:38;100881.30;;;26.51;42.28
58739;BME280;44512;53.046;18.604;2023-07-30T15:12:07;100874.43;;;26.94;41.85
58739;BME280;44512;53.046;18.604;2023-07-30T15:22:35;100856.88;;;27.40;40.81
58739;BME280;44512;53.046;18.604;2023-07-30T15:33:03;100854.55;;;27.84;40.82
58739;BME280;44512;53.046;18.604;2023-07-30T15:43:31;100847.82;;;28.21;39.36
58739;BME280;44512;53.046;18.604;2023-07-30T15:54:00;100841.38;;;28.57;37.62
58739;BME280;44512;53.046;18.604;2023-07-30T16:04:33;100834.16;;;28.87;37.18
58739;BME280;44512;53.046;18.604;2023-07-30T16:15:00;100844.16;;;29.19;36.54
58739;BME280;44512;53.046;18.604;2023-07-30T16:25:28;100862.29;;;29.47;35.52
58739;BME280;44512;53.046;18.604;2023-07-30T16:35:56;100865.94;;;29.56;34.53
58739;BME280;44512;53.046;18.604;2023-07-30T16:46:25;100870.51;;;29.52;34.43
58739;BME280;44512;53.046;18.604;2023-07-30T16:56:53;100878.66;;;29.40;34.08
58739;BME280;44512;53.046;18.604;2023-07-30T17:07:22;100885.48;;;29.17;34.41
58739;BME280;44512;53.046;18.604;2023-07-30T17:17:55;100886.91;;;28.83;34.89
58739;BME280;44512;53.046;18.604;2023-07-30T17:28:24;100902.77;;;28.51;35.81
58739;BME280;44512;53.046;18.604;2023-07-30T17:38:56;100929.05;;;28.23;36.69
58739;BME280;44512;53.046;18.604;2023-07-30T17:49:27;100935.42;;;27.87;38.70
58739;BME280;44512;53.046;18.604;2023-07-30T17:59:53;100921.09;;;27.39;41.61
58739;BME280;44512;53.046;18.604;2023-07-30T18:10:21;100904.34;;;26.97;42.29
58739;BME280;44512;53.046;18.604;2023-07-30T18:20:50;100885.37;;;26.72;43.73
58739;BME280;44512;53.046;18.604;2023-07-30T18:31:18;100896.62;;;26.48;44.52
58739;BME280;44512;53.046;18.604;2023-07-30T18:41:46;100909.43;;;26.25;44.72
58739;BME280;44512;53.046;18.604;2023-07-30T18:52:16;100923.01;;;26.08;44.66
58739;BME280;44512;53.046;18.604;2023-07-30T19:02:43;100948.70;;;25.94;45.42
58739;BME280;44512;53.046;18.604;2023-07-30T19:13:12;100931.99;;;25.81;46.52
58739;BME280;44512;53.046;18.604;2023-07-30T19:23:40;100929.69;;;25.64;47.47
58739;BME280;44512;53.046;18.604;2023-07-30T19:34:10;100949.27;;;25.49;48.13
58739;BME280;44512;53.046;18.604;2023-07-30T19:44:36;100963.81;;;25.35;48.60
58739;BME280;44512;53.046;18.604;2023-07-30T19:55:05;100987.78;;;25.21;48.78
58739;BME280;44512;53.046;18.604;2023-07-30T20:05:33;100991.78;;;25.05;48.71
58739;BME280;44512;53.046;18.604;2023-07-30T20:16:01;101000.47;;;24.93;48.98
58739;BME280;44512;53.046;18.604;2023-07-30T20:26:30;100995.31;;;24.81;49.32
58739;BME280;44512;53.046;18.604;2023-07-30T20:36:58;100990.95;;;24.70;49.71
58739;BME280;44512;53.046;18.604;2023-07-30T20:47:26;100991.62;;;24.57;49.55
58739;BME280;44512;53.046;18.604;2023-07-30T20:57:55;100999.98;;;24.47;50.00
58739;BME280;44512;53.046;18.604;2023-07-30T21:08:23;101005.58;;;24.36;50.68
58739;BME280;44512;53.046;18.604;2023-07-30T21:18:51;101012.80;;;24.27;51.25
58739;BME280;44512;53.046;18.604;2023-07-30T21:29:20;100999.84;;;24.17;51.89
58739;BME280;44512;53.046;18.604;2023-07-30T21:39:48;101010.95;;;24.07;52.70
58739;BME280;44512;53.046;18.604;2023-07-30T21:50:16;101010.17;;;23.97;53.42
58739;BME280;44512;53.046;18.604;2023-07-30T22:00:48;101005.80;;;23.85;53.98
58739;BME280;44512;53.046;18.604;2023-07-30T22:11:17;101008.32;;;23.72;54.29
58739;BME280;44512;53.046;18.604;2023-07-30T22:21:41;101018.55;;;23.61;54.60
58739;BME280;44512;53.046;18.604;2023-07-30T22:32:09;101015.27;;;23.49;54.83
58739;BME280;44512;53.046;18.604;2023-07-30T22:42:38;101010.31;;;23.35;55.08
58739;BME280;44512;53.046;18.604;2023-07-30T22:53:06;101031.59;;;23.25;55.22
58739;BME280;44512;53.046;18.604;2023-07-30T23:03:34;101045.16;;;23.16;55.42
58739;BME280;44512;53.046;18.604;2023-07-30T23:14:03;101043.46;;;23.05;54.22
58739;BME280;44512;53.046;18.604;2023-07-30T23:24:32;101037.95;;;22.95;52.94
58739;BME280;44512;53.046;18.604;2023-07-30T23:34:59;101038.23;;;22.88;52.09
58739;BME280;44512;53.046;18.604;2023-07-30T23:45:28;101029.09;;;22.82;51.03
58739;BME280;44512;53.046;18.604;2023-07-30T23:55:56;101026.88;;;22.74;50.48
